Latest Weather Observations for Horsley Park

IDN60801

Issued at 7:19 pm EDT Thursday 29 January 2015 (issued every 30 minutes, with the page automatically refreshed every 10 minutes)

About weather observations | Map of weather stations | Latest weather observations for NSW | Other Formats
Station Details ID: 067119 Name: HORSLEY PARK EQUESTRIAN CENTRE AWS Lat: -33.85 Lon: 150.86 Height: 100.0 m
Data from the previous 72 hours. | See also: Recent months at Horsley Park
Date/Time
EDT
Temp
°C
App
Temp
°C
Dew
Point
Rel
Hum
%
Delta-T
°C
Wind Press
QNH
hPa
Press
MSL
hPa
Rain
since 9 am
mm
Dir
 
Spd
km/h
Gust
km/h
Spd
kts
Gust
kts
29/07:00pm 20.2 16.6 10.0 52 5.5 SSE 19 28 10 15 - - 0.0
29/06:30pm 20.8 17.6 10.0 50 5.8 SE 17 30 9 16 - - 0.0
29/06:00pm 21.4 18.8 10.6 50 5.9 SSE 15 26 8 14 - - 0.0
29/05:30pm 22.7 19.4 6.5 35 8.3 S 13 26 7 14 - - 0.0
29/05:00pm 24.2 21.4 6.9 33 9.0 SW 11 20 6 11 - - 0.0
29/04:30pm 24.5 21.4 8.9 37 8.5 SSW 15 24 8 13 - - 0.0
29/04:00pm 23.8 19.6 7.4 35 8.6 SSW 19 32 10 17 - - 0.0
29/03:30pm 22.9 19.1 7.4 37 8.1 S 17 24 9 13 - - 0.0
29/03:00pm 23.1 19.1 8.4 39 7.8 SSW 19 32 10 17 - - 0.0
29/02:30pm 23.0 19.0 8.3 39 7.8 SSW 19 33 10 18 - - 0.0
29/02:00pm 21.5 17.5 6.6 38 7.6 SW 17 30 9 16 - - 0.0
29/01:30pm 22.6 19.2 7.6 38 7.9 SW 15 33 8 18 - - 0.0
29/01:00pm 21.4 17.8 6.9 39 7.4 SW 15 30 8 16 - - 0.0
29/12:30pm 21.6 17.6 8.1 42 7.1 SW 19 35 10 19 - - 0.0
29/12:00pm 21.5 17.9 8.4 43 6.9 SW 17 32 9 17 - - 0.0
29/11:30am 21.2 17.5 9.4 47 6.3 SSW 19 33 10 18 - - 0.0
29/11:00am 20.3 16.5 8.9 48 6.0 SSW 19 32 10 17 - - 0.0
29/10:30am 19.5 15.3 8.2 48 5.9 SW 20 30 11 16 - - 0.0
29/10:00am 19.2 15.4 9.1 52 5.3 SSW 19 30 10 16 - - 0.0
29/09:30am 18.4 14.2 8.1 51 5.3 SSW 20 35 11 19 - - 0.0
29/09:00am 17.8 14.6 8.4 54 4.9 SW 15 26 8 14 - - 16.8
29/08:30am 17.1 13.0 8.5 57 4.4 SW 20 35 11 19 - - 16.8
29/08:00am 15.9 12.8 8.9 63 3.6 SW 15 22 8 12 - - 16.8
29/07:30am 15.6 13.8 9.5 67 3.2 SW 9 15 5 8 - - 16.8
29/07:00am 15.1 12.5 9.2 68 3.0 SW 13 22 7 12 - - 16.8
29/06:30am 15.0 12.5 9.6 70 2.8 SW 13 20 7 11 - - 16.8
29/06:00am 15.1 12.6 9.7 70 2.8 SW 13 26 7 14 - - 16.8
29/05:30am 15.1 12.4 10.3 73 2.5 SW 15 22 8 12 - - 16.8
29/05:00am 14.8 12.5 10.6 76 2.2 SW 13 20 7 11 - - 16.8
29/04:30am 14.6 12.4 10.8 78 2.0 SW 13 17 7 9 - - 16.8
29/04:00am 14.5 12.8 11.1 80 1.8 SW 11 19 6 10 - - 16.8
29/03:30am 14.3 13.3 10.9 80 1.8 WSW 7 13 4 7 - - 16.8
29/03:00am 14.8 13.4 11.0 78 2.0 SW 9 13 5 7 - - 16.8
29/02:30am 15.2 13.1 11.2 77 2.1 SW 13 19 7 10 - - 16.8
29/02:00am 15.2 12.7 11.2 77 2.1 SW 15 24 8 13 - - 16.8
29/01:30am 15.2 13.8 11.0 76 2.2 SW 9 17 5 9 - - 16.8
29/01:00am 15.1 12.9 10.9 76 2.2 SW 13 19 7 10 - - 16.8
29/12:30am 15.1 13.7 10.9 76 2.2 SW 9 15 5 8 - - 16.8
29/12:00am 15.6 13.8 11.0 74 2.5 SW 11 17 6 9 - - 16.8
 
Date/Time
EDT
Temp
°C
App
Temp
°C
Dew
Point
Rel
Hum
%
Delta-T
°C
Wind Press
QNH
hPa
Press
MSL
hPa
Rain
since 9 am
mm
Dir
 
Spd
km/h
Gust
km/h
Spd
kts
Gust
kts
28/11:30pm 15.9 14.2 11.3 74 2.5 SW 11 19 6 10 - - 16.8
28/11:00pm 16.0 14.7 11.2 73 2.6 SW 9 15 5 8 - - 16.8
28/10:30pm 16.3 15.0 11.2 72 2.8 SW 9 15 5 8 - - 16.8
28/10:00pm 16.6 14.9 11.3 71 2.9 SW 11 19 6 10 - - 16.8
28/09:30pm 17.0 15.4 11.7 71 2.9 SW 11 17 6 9 - - 16.8
28/09:00pm 17.1 16.1 12.2 73 2.7 SW 9 13 5 7 - - 16.8
28/08:30pm 17.4 16.8 12.3 72 2.8 SSW 7 15 4 8 - - 16.8
28/08:00pm 17.7 16.7 12.2 70 3.0 SSW 9 17 5 9 - - 16.8
28/07:30pm 18.1 16.3 12.1 68 3.3 SSW 13 17 7 9 - - 16.8
28/07:00pm 18.7 16.0 11.8 64 3.8 S 17 35 9 19 - - 16.8
28/06:30pm 19.3 17.9 13.5 69 3.3 S 13 22 7 12 - - 16.8
28/06:00pm 19.0 16.8 13.4 70 3.2 S 17 28 9 15 - - 16.8
28/05:30pm 19.2 18.6 14.5 74 2.7 SSE 11 19 6 10 - - 16.6
28/05:00pm 18.3 18.5 14.6 79 2.1 SSE 7 15 4 8 - - 16.6
28/04:30pm 20.0 18.0 12.7 63 4.1 SSE 15 35 8 19 - - 15.4
28/04:00pm 21.2 19.2 13.9 63 4.2 S 17 26 9 14 - - 15.4
28/03:30pm 19.9 18.5 13.4 66 3.7 SSW 13 28 7 15 - - 15.4
28/03:00pm 18.5 17.4 14.2 76 2.5 SE 13 20 7 11 - - 15.4
28/02:30pm 19.0 19.7 15.7 81 2.0 SSE 6 11 3 6 - - 15.4
28/02:00pm 17.8 16.5 14.9 83 1.7 SSW 15 35 8 19 - - 15.2
28/01:30pm 19.4 20.4 16.8 85 1.6 SSW 7 9 4 5 - - 14.2
28/01:00pm 18.0 19.0 16.3 90 1.0 SSW 6 13 3 7 - - 14.2
28/12:30pm 17.6 18.7 16.6 94 0.6 S 6 9 3 5 - - 14.0
28/12:00pm 17.0 17.2 15.7 92 0.8 S 9 19 5 10 - - 13.4
28/11:30am 17.5 18.4 16.7 95 0.5 SW 7 13 4 7 - - 11.0
28/11:00am 16.8 17.1 16.0 95 0.5 SW 9 15 5 8 - - 10.6
28/10:30am 16.6 17.3 16.0 96 0.4 SW 7 13 4 7 - - 10.2
28/10:00am 16.4 17.2 15.8 96 0.4 S 6 9 3 5 - - 8.2
28/09:30am 16.2 15.5 15.4 95 0.5 SW 13 20 7 11 - - 5.4
28/09:00am 16.2 15.9 15.4 95 0.5 SSW 11 17 6 9 - - 43.4
28/08:30am 16.1 16.5 15.3 95 0.5 S 7 13 4 7 - - 41.2
28/08:00am 16.0 16.3 15.0 94 0.6 S 7 15 4 8 - - 37.0
28/07:30am 16.2 15.7 14.9 92 0.8 SSW 11 17 6 9 - - 32.2
28/07:00am 16.7 17.2 15.1 90 0.9 SSW 6 9 3 5 - - 29.0
28/06:30am 16.8 17.2 15.2 90 0.9 SSW 7 15 4 8 - - 28.8
28/06:00am 16.7 17.1 15.4 92 0.8 SW 7 13 4 7 - - 28.8
28/05:30am 16.7 16.1 15.6 93 0.6 SW 13 19 7 10 - - 28.8
28/05:00am 16.8 15.8 15.5 92 0.8 SSW 15 24 8 13 - - 28.8
28/04:30am 16.7 16.9 15.7 94 0.6 SW 9 13 5 7 - - 28.8
28/04:00am 16.7 16.6 15.9 95 0.5 SW 11 17 6 9 - - 28.8
28/03:30am 16.8 17.0 15.8 94 0.6 SW 9 13 5 7 - - 28.4
28/03:00am 16.8 16.6 15.8 94 0.6 SW 11 15 6 8 - - 28.4
28/02:30am 16.9 17.2 16.1 95 0.5 SSW 9 15 5 8 - - 28.2
28/02:00am 17.1 17.5 16.3 95 0.5 SSE 9 15 5 8 - - 28.2
28/01:30am 17.3 17.0 16.5 95 0.5 S 13 22 7 12 - - 28.0
28/01:00am 17.3 17.8 16.5 95 0.5 SW 9 13 5 7 - - 25.6
28/12:30am 17.3 18.2 16.5 95 0.5 SSW 7 11 4 6 - - 24.0
28/12:00am 17.4 18.5 16.6 95 0.5 SSW 6 9 3 5 - - 22.6
 
Date/Time
EDT
Temp
°C
App
Temp
°C
Dew
Point
Rel
Hum
%
Delta-T
°C
Wind Press
QNH
hPa
Press
MSL
hPa
Rain
since 9 am
mm
Dir
 
Spd
km/h
Gust
km/h
Spd
kts
Gust
kts
27/11:30pm 17.4 18.5 16.6 95 0.5 SSW 6 11 3 6 - - 21.8
27/11:00pm 17.4 18.3 16.6 95 0.5 ESE 7 13 4 7 - - 21.6
27/10:30pm 17.5 17.7 16.7 95 0.5 SE 11 19 6 10 - - 21.6
27/10:00pm 17.6 18.6 16.8 95 0.5 SSE 7 13 4 7 - - 21.4
27/09:30pm 17.7 18.0 16.9 95 0.5 S 11 19 6 10 - - 21.0
27/09:00pm 17.8 19.1 17.0 95 0.5 SSE 6 9 3 5 - - 20.0
27/08:30pm 17.9 20.0 17.1 95 0.5 S 2 4 1 2 - - 17.2
27/08:00pm 17.7 19.3 16.9 95 0.5 SSW 4 7 2 4 - - 17.0
27/07:30pm 17.7 18.8 16.7 94 0.6 ESE 6 7 3 4 - - 15.8
27/07:00pm 17.8 19.4 16.8 94 0.6 SSE 4 6 2 3 - - 14.8
27/06:30pm 17.8 19.7 16.8 94 0.6 S 2 7 1 4 - - 14.6
27/06:00pm 17.5 18.6 16.5 94 0.6 E 6 9 3 5 - - 14.6
27/05:30pm 17.7 17.8 16.6 93 0.7 E 11 17 6 9 - - 13.0
27/05:00pm 18.3 19.4 17.1 93 0.7 E 7 13 4 7 - - 11.6
27/04:30pm 18.2 18.5 17.0 93 0.7 ESE 11 17 6 9 - - 11.6
27/04:00pm 18.2 18.1 17.0 93 0.7 SE 13 19 7 10 - - 11.4
27/03:30pm 18.6 18.8 17.6 94 0.6 SSE 13 20 7 11 - - 10.2
27/03:00pm 18.5 19.0 17.5 94 0.6 SSE 11 20 6 11 - - 9.0
27/02:30pm 18.6 20.0 17.8 95 0.5 SSE 7 17 4 9 - - 8.8
27/02:00pm 18.2 19.0 17.4 95 0.5 SSE 9 15 5 8 - - 8.6
27/01:30pm 18.3 19.2 17.5 95 0.5 SSE 9 17 5 9 - - 8.0
27/01:00pm 18.2 19.0 17.2 94 0.6 SSE 9 15 5 8 - - 7.6
27/12:30pm 18.3 19.1 17.3 94 0.6 SSE 9 19 5 10 - - 7.0
27/12:00pm 18.4 20.1 17.2 93 0.7 ESE 4 9 2 5 - - 5.4
27/11:30am 18.6 19.8 17.4 93 0.7 E 7 11 4 6 - - 1.6
27/11:00am 18.6 19.2 17.6 94 0.6 E 11 19 6 10 - - 1.2
27/10:30am 18.6 19.2 17.8 95 0.5 SE 11 17 6 9 - - 1.0
27/10:00am 18.2 19.4 17.4 95 0.5 SSE 7 19 4 10 - - 0.8
27/09:30am 18.1 18.8 17.1 94 0.6 SSW 9 15 5 8 - - 0.0
27/09:00am 18.0 19.1 17.2 95 0.5 S 7 15 4 8 - - 10.8
27/08:30am 17.8 18.1 17.0 95 0.5 S 11 19 6 10 - - 10.6
27/08:00am 17.6 18.2 16.8 95 0.5 S 9 15 5 8 - - 10.6
27/07:30am 17.5 17.7 16.7 95 0.5 SSW 11 19 6 10 - - 9.2
27/07:00am 17.7 18.0 16.9 95 0.5 S 11 19 6 10 - - 9.0
27/06:30am 17.8 18.2 17.2 96 0.4 S 11 15 6 8 - - 8.8
27/06:00am 18.0 19.2 17.4 96 0.4 S 7 11 4 6 - - 7.2
27/05:30am 17.9 17.6 17.3 96 0.4 S 15 20 8 11 - - 7.2
27/05:00am 18.1 19.4 17.5 96 0.4 S 7 9 4 5 - - 6.8
27/04:30am 18.1 19.6 17.5 96 0.4 S 6 7 3 4 - - 6.8
27/04:00am 17.9 19.3 17.3 96 0.4 SSW 6 9 3 5 - - 6.8
27/03:30am 17.8 19.1 17.2 96 0.4 SSW 6 9 3 5 - - 6.0
27/03:00am 17.5 18.6 16.7 95 0.5 S 6 9 3 5 - - 4.0
27/02:30am 17.3 17.4 16.5 95 0.5 SSW 11 17 6 9 - - 3.0
27/02:00am 17.3 17.8 16.5 95 0.5 SSW 9 13 5 7 - - 2.2
27/01:30am 17.1 17.9 16.3 95 0.5 SW 7 9 4 5 - - 2.0
27/01:00am 17.1 17.5 16.3 95 0.5 SW 9 13 5 7 - - 2.0
27/12:30am 17.0 17.7 16.2 95 0.5 SSW 7 11 4 6 - - 2.0
27/12:00am 17.0 17.9 16.2 95 0.5 SW 6 13 3 7 - - 2.0
 
Date/Time
EDT
Temp
°C
App
Temp
°C
Dew
Point
Rel
Hum
%
Delta-T
°C
Wind Press
QNH
hPa
Press
MSL
hPa
Rain
since 9 am
mm
Dir
 
Spd
km/h
Gust
km/h
Spd
kts
Gust
kts
26/11:30pm 16.9 17.2 16.1 95 0.5 SW 9 13 5 7 - - 1.8
26/11:00pm 17.0 17.4 16.2 95 0.5 SW 9 13 5 7 - - 1.6
26/10:30pm 17.0 17.9 16.2 95 0.5 SSW 6 11 3 6 - - 1.2
26/10:00pm 16.7 17.3 15.7 94 0.6 S 7 15 4 8 - - 1.2
26/09:30pm 16.8 17.0 15.8 94 0.6 SSW 9 17 5 9 - - 0.8
26/09:00pm 17.0 16.9 15.9 93 0.7 SSW 11 15 6 8 - - 0.2
26/08:30pm 17.1 17.3 15.8 92 0.8 SSW 9 17 5 9 - - 0.2
26/08:00pm 17.1 16.9 15.8 92 0.8 SSW 11 19 6 10 - - 0.2
26/07:30pm 17.0 17.6 15.7 92 0.8 SSW 7 13 4 7 - - 0.2

Other Formats:

Comma delimited format used in spreadsheet applications
http://www.bom.gov.au/fwo/IDN60801/IDN60801.94760.axf

JavaScript Object Notation format (JSON) in row-major order
http://www.bom.gov.au/fwo/IDN60801/IDN60801.94760.json